createdAt,value
2019-05-22T00:01:40.732Z,5.58
2019-05-22T00:06:45.612Z,5.58
2019-05-22T00:11:52.944Z,5.67
2019-05-22T00:16:58.684Z,5.83
2019-05-22T00:22:10.728Z,5.33
2019-05-22T00:27:17.519Z,6.67
2019-05-22T00:32:24.340Z,6.00
2019-05-22T00:42:35.586Z,6.30
2019-05-22T00:47:41.179Z,6.92
2019-05-22T00:52:49.556Z,6.87
2019-05-22T00:58:12.869Z,7.08
2019-05-22T01:03:20.498Z,6.47
2019-05-22T01:08:27.439Z,6.80
2019-05-22T01:18:38.187Z,7.20
2019-05-22T01:23:43.109Z,7.08
2019-05-22T01:28:48.275Z,8.20
2019-05-22T01:34:07.535Z,8.10
2019-05-22T01:39:28.673Z,8.28
2019-05-22T01:44:33.917Z,7.42
2019-05-22T01:49:47.517Z,7.28
2019-05-22T01:54:52.802Z,8.68
2019-05-22T01:59:57.107Z,7.92
2019-05-22T02:05:03.896Z,7.50
2019-05-22T02:10:14.332Z,8.15
2019-05-22T02:15:19.282Z,8.13
2019-05-22T02:20:27.156Z,8.63
2019-05-22T02:25:31.833Z,9.45
2019-05-22T02:30:37.692Z,9.15
2019-05-22T02:35:42.272Z,9.25
2019-05-22T02:40:49.232Z,10.00
2019-05-22T02:45:53.236Z,9.43
2019-05-22T02:50:59.150Z,8.70
2019-05-22T02:56:03.344Z,9.60
2019-05-22T03:01:08.463Z,10.13
2019-05-22T03:06:13.693Z,10.98
2019-05-22T03:11:17.791Z,10.35
2019-05-22T03:16:23.017Z,9.20
2019-05-22T03:21:27.384Z,10.28
2019-05-22T03:26:47.208Z,11.22
2019-05-22T03:31:50.519Z,9.25
2019-05-22T03:36:54.578Z,9.78
2019-05-22T03:41:59.724Z,10.50
2019-05-22T03:47:05.012Z,10.30
2019-05-22T03:52:09.069Z,9.85
2019-05-22T03:57:15.804Z,11.53
2019-05-22T04:02:22.133Z,12.33
2019-05-22T04:07:26.191Z,13.22
2019-05-22T04:12:30.491Z,12.10
2019-05-22T04:17:35.737Z,10.90
2019-05-22T04:22:40.568Z,9.65
2019-05-22T04:27:44.693Z,7.55
2019-05-22T04:32:49.009Z,7.25
2019-05-22T04:37:52.622Z,8.68
2019-05-22T04:42:58.229Z,7.97
2019-05-22T04:48:04.121Z,8.20
2019-05-22T04:53:08.310Z,5.63
2019-05-22T04:58:14.150Z,5.72
2019-05-22T05:03:20.278Z,3.80
2019-05-22T05:08:25.217Z,5.67
2019-05-22T05:13:28.932Z,6.35
2019-05-22T05:18:33.593Z,6.15
2019-05-22T05:23:37.040Z,6.28
2019-05-22T05:28:41.459Z,6.10
2019-05-22T05:34:01.860Z,6.08
2019-05-22T05:39:32.028Z,5.90
2019-05-22T05:44:35.464Z,5.00
2019-05-22T05:49:41.668Z,5.25
2019-05-22T05:54:48.112Z,4.92
2019-05-22T05:59:51.706Z,3.83
2019-05-22T06:04:55.850Z,4.55
2019-05-22T06:11:09.863Z,3.25
2019-05-22T06:16:53.394Z,3.33
2019-05-22T06:21:57.691Z,3.90
2019-05-22T06:27:10.524Z,3.08
2019-05-22T06:32:59.761Z,2.83
2019-05-22T06:38:21.049Z,2.85
2019-05-22T06:44:32.170Z,2.65
2019-05-22T06:49:43.211Z,2.98
2019-05-22T06:54:47.179Z,3.08
2019-05-22T07:00:11.313Z,2.90
2019-05-22T07:04:56.604Z,2.62
2019-05-22T07:10:00.760Z,2.15
2019-05-22T07:15:30.165Z,2.22
2019-05-22T07:20:37.204Z,1.98
2019-05-22T07:25:42.518Z,2.17
2019-05-22T07:30:47.541Z,2.50
2019-05-22T07:36:08.667Z,2.12
2019-05-22T07:40:57.560Z,1.65
2019-05-22T07:46:01.852Z,1.67
2019-05-22T07:51:06.262Z,1.47
2019-05-22T07:56:11.177Z,1.47
2019-05-22T08:01:17.243Z,1.02
2019-05-22T08:06:22.630Z,1.00
2019-05-22T08:11:26.502Z,0.80
2019-05-22T08:16:31.486Z,0.93
2019-05-22T08:21:35.121Z,1.07
2019-05-22T08:26:53.826Z,0.85
2019-05-22T08:31:46.822Z,1.02
2019-05-22T08:36:50.412Z,0.50
2019-05-22T08:41:53.814Z,0.70
2019-05-22T08:46:58.977Z,0.50
2019-05-22T08:52:04.000Z,0.80
2019-05-22T08:57:10.153Z,0.70
2019-05-22T09:02:15.352Z,1.00
2019-05-22T09:12:24.386Z,0.75
2019-05-22T09:17:29.387Z,0.60
2019-05-22T09:22:40.577Z,0.60
2019-05-22T09:27:40.496Z,0.70
2019-05-22T09:32:47.410Z,0.45
2019-05-22T09:37:49.786Z,0.40
2019-05-22T09:42:53.617Z,0.90
2019-05-22T09:47:58.442Z,1.00
2019-05-22T09:53:02.165Z,0.55
2019-05-22T09:58:06.373Z,0.72
2019-05-22T10:03:09.679Z,0.50
2019-05-22T10:08:13.512Z,0.50
2019-05-22T10:13:17.136Z,0.82
2019-05-22T10:18:21.596Z,0.50
2019-05-22T10:23:26.022Z,0.60
2019-05-22T10:28:30.737Z,0.75
2019-05-22T10:33:34.997Z,0.80
2019-05-22T10:38:39.634Z,0.62
2019-05-22T10:43:44.244Z,0.60
2019-05-22T10:48:48.114Z,0.60
2019-05-22T10:53:53.160Z,0.75
2019-05-22T10:58:56.749Z,0.67
2019-05-22T11:04:00.558Z,0.70
2019-05-22T11:09:06.077Z,0.70
2019-05-22T11:14:10.734Z,0.75
2019-05-22T11:19:14.510Z,0.88
2019-05-22T11:24:18.680Z,0.88
2019-05-22T11:29:23.328Z,0.80
2019-05-22T11:34:26.878Z,0.90
2019-05-22T11:39:39.351Z,1.10
2019-05-22T11:49:40.316Z,0.90
2019-05-22T11:54:44.681Z,0.90
2019-05-22T11:59:48.802Z,0.78
2019-05-22T12:04:54.018Z,0.80
2019-05-22T12:09:57.808Z,0.78
2019-05-22T12:15:01.580Z,1.17
2019-05-22T12:20:06.381Z,0.80
2019-05-22T12:25:13.521Z,1.10
2019-05-22T12:30:17.864Z,0.80
2019-05-22T12:35:22.609Z,1.00
2019-05-22T12:40:31.446Z,0.80
2019-05-22T12:45:37.670Z,0.57
2019-05-22T12:50:41.376Z,1.00
2019-05-22T12:55:46.289Z,0.85
2019-05-22T13:00:52.860Z,1.17
2019-05-22T13:05:59.063Z,0.70
2019-05-22T13:11:05.530Z,0.60
2019-05-22T13:16:10.029Z,0.80
2019-05-22T13:21:18.455Z,1.35
2019-05-22T13:26:23.634Z,0.70
2019-05-22T13:31:27.577Z,0.70
2019-05-22T13:36:32.318Z,1.00
2019-05-22T13:41:36.815Z,0.70
2019-05-22T13:46:41.070Z,0.90
2019-05-22T13:51:44.771Z,0.90
2019-05-22T13:56:48.978Z,2.08
2019-05-22T14:01:52.793Z,0.70
2019-05-22T14:06:56.610Z,0.80
2019-05-22T14:12:01.190Z,0.70
2019-05-22T14:17:04.932Z,1.02
2019-05-22T14:22:08.349Z,1.02
2019-05-22T14:27:12.554Z,1.30
2019-05-22T14:32:16.978Z,1.27
2019-05-22T14:37:21.847Z,1.00
2019-05-22T14:42:25.749Z,0.70
2019-05-22T14:47:29.674Z,0.50
2019-05-22T14:52:35.072Z,0.60
2019-05-22T14:57:39.437Z,1.12
2019-05-22T15:02:43.684Z,1.42
2019-05-22T15:07:48.047Z,1.43
2019-05-22T15:12:52.564Z,2.12
2019-05-22T15:17:56.233Z,1.70
2019-05-22T15:22:59.758Z,1.50
2019-05-22T15:28:03.632Z,1.47
2019-05-22T15:33:08.566Z,1.22
2019-05-22T15:38:13.801Z,1.30
2019-05-22T15:43:17.367Z,1.20
2019-05-22T15:48:27.369Z,1.30
2019-05-22T15:53:33.023Z,1.00
2019-05-22T15:58:39.550Z,1.47
2019-05-22T16:03:47.172Z,1.00
2019-05-22T16:08:52.687Z,1.10
2019-05-22T16:13:59.074Z,1.30
2019-05-22T16:19:05.045Z,1.30
2019-05-22T16:24:10.197Z,1.40
2019-05-22T16:29:14.757Z,1.20
2019-05-22T16:34:18.897Z,0.82
2019-05-22T16:39:23.190Z,0.80
2019-05-22T16:44:27.659Z,0.70
2019-05-22T16:49:32.572Z,0.80
2019-05-22T16:54:39.797Z,0.80
2019-05-22T16:59:45.137Z,1.00
2019-05-22T17:04:51.318Z,1.50
2019-05-22T17:09:55.176Z,1.52
2019-05-22T17:14:59.769Z,1.25
2019-05-22T17:20:04.337Z,1.60
2019-05-22T17:25:08.028Z,1.57
2019-05-22T17:30:13.118Z,1.57
2019-05-22T17:45:28.544Z,2.80
2019-05-22T17:50:32.996Z,2.02
2019-05-22T17:55:38.761Z,2.10
2019-05-22T18:00:46.450Z,2.50
2019-05-22T18:05:49.943Z,2.62
2019-05-22T18:10:55.108Z,2.90
2019-05-22T18:15:58.719Z,2.85
2019-05-22T18:21:02.546Z,3.90
2019-05-22T18:26:06.012Z,4.12
2019-05-22T18:31:09.608Z,4.22
2019-05-22T18:36:13.045Z,4.95
2019-05-22T18:41:16.541Z,6.53
2019-05-22T18:46:20.949Z,7.53
2019-05-22T18:51:24.729Z,7.30
2019-05-22T18:56:29.580Z,6.58
2019-05-22T19:01:33.660Z,7.17
2019-05-22T19:06:37.921Z,6.75
2019-05-22T19:11:42.155Z,6.37
2019-05-22T19:16:45.579Z,8.18
2019-05-22T19:21:50.398Z,7.95
2019-05-22T19:26:54.098Z,8.05
2019-05-22T19:31:57.778Z,8.03
2019-05-22T19:37:01.919Z,8.73
2019-05-22T19:42:06.022Z,9.28
2019-05-22T19:47:10.041Z,10.35
2019-05-22T19:52:14.481Z,10.40
2019-05-22T19:57:18.151Z,9.93
2019-05-22T20:02:22.878Z,12.18
2019-05-22T20:07:26.938Z,11.73
2019-05-22T20:12:30.737Z,11.15
2019-05-22T20:17:34.842Z,11.05
2019-05-22T20:22:40.418Z,10.82
2019-05-22T20:27:44.189Z,10.13
2019-05-22T20:32:48.300Z,10.10
2019-05-22T20:37:59.717Z,9.63
2019-05-22T20:43:01.390Z,10.43
2019-05-22T20:48:16.820Z,9.20
2019-05-22T20:53:21.405Z,12.78
2019-05-22T20:58:29.881Z,13.08
2019-05-22T21:03:35.010Z,10.38
2019-05-22T21:08:40.855Z,10.10
2019-05-22T21:13:46.478Z,9.47
2019-05-22T21:18:54.259Z,8.78
2019-05-22T21:24:09.929Z,8.38
2019-05-22T21:29:04.724Z,7.95
2019-05-22T21:34:08.534Z,8.38
2019-05-22T21:39:13.460Z,8.33
2019-05-22T21:44:17.798Z,9.83
2019-05-22T21:49:23.552Z,8.95
2019-05-22T21:54:28.409Z,8.58
2019-05-22T21:59:32.987Z,7.60
2019-05-22T22:04:37.684Z,7.87
2019-05-22T22:09:42.933Z,7.20
2019-05-22T22:14:47.975Z,7.42
2019-05-22T22:19:52.219Z,8.33
2019-05-22T22:25:00.177Z,8.20
2019-05-22T22:30:09.524Z,9.03
2019-05-22T22:35:14.708Z,9.75
2019-05-22T22:40:23.764Z,9.83
2019-05-22T22:45:42.907Z,8.88
2019-05-22T22:50:46.962Z,8.98
2019-05-22T22:55:51.361Z,9.00
2019-05-22T23:00:58.919Z,9.18
2019-05-22T23:06:03.530Z,8.28
2019-05-22T23:11:10.649Z,7.28
2019-05-22T23:16:14.370Z,8.13
2019-05-22T23:21:18.465Z,8.25
2019-05-22T23:26:22.170Z,8.53
2019-05-22T23:31:25.942Z,7.55
2019-05-22T23:36:30.136Z,8.53
2019-05-22T23:41:36.369Z,9.00
2019-05-22T23:46:40.744Z,9.08
2019-05-22T23:51:45.399Z,9.80
2019-05-22T23:56:51.526Z,9.13
